23 maggio 2022

Tempo Codice Tempo metereologico Temp. Vista Nuvole Vento METAR/SPECI
18:55
I
13 °C 8 km 700 ft 320°   320° 15 kt METAR EHAM 231655Z 32015KT 290V010 8000 -RADZ FEW005 BKN007 BKN027 13/12 Q0997 NOSIG
18:25
I
13 °C 4,2 km 600 ft 320°   320° 15 kt METAR EHAM 231625Z 32015KT 290V360 4200 RADZ FEW005 BKN006 BKN028 13/13 Q0997 NOSIG
17:55
I
14 °C 4,5 km 1.700 ft 320°   320° 13 kt METAR EHAM 231555Z 32013KT 280V350 4500 RADZ FEW007 BKN017 BKN040 14/13 Q0997 NOSIG
17:25
I
15 °C 4,5 km 4.200 ft 330°   330° 8 kt METAR EHAM 231525Z 33008KT 280V020 4500 RADZ FEW018 BKN042 15/14 Q0997 NOSIG
16:55
M
16 °C 5 km - 330°   330° 11 kt METAR EHAM 231455Z 33011KT 300V010 5000 -RADZ FEW022 SCT040 16/14 Q0997 RERA REDZ BECMG 7000
16:25
M
16 °C 5 km - 340°   340° 8 kt METAR EHAM 231425Z 34008KT 300V040 5000 RADZ FEW034 SCT040 16/14 Q0998 BECMG 7000
15:55
V
18 °C 9 km - 310°   310° 9 kt METAR EHAM 231355Z 31009KT 270V340 9000 -RADZ FEW040 18/15 Q0998 TEMPO 7000
15:25
V
20 °C 10 km+ - Var   Var 2 kt METAR EHAM 231325Z VRB02KT 9999 -RADZ NSC 20/15 Q0998 NOSIG
14:55
V
21 °C 10 km+ - 030°   030° 3 kt METAR EHAM 231255Z 03003KT 310V090 CAVOK 21/13 Q0998 NOSIG
14:25
V
21 °C 10 km+ - Var   Var 2 kt METAR EHAM 231225Z VRB02KT CAVOK 21/14 Q0999 NOSIG
13:55
V
20 °C 10 km+ - 070°   070° 3 kt METAR EHAM 231155Z 07003KT 350V130 CAVOK 20/15 Q0999 NOSIG
13:25
V
20 °C 10 km+ - 060°   060° 3 kt METAR EHAM 231125Z 06003KT 340V090 CAVOK 20/15 Q1000 NOSIG
12:55
V
20 °C 10 km+ - Var   Var 3 kt METAR EHAM 231055Z VRB03KT 9999 -RA NSC 20/13 Q1000 NOSIG
12:25
V
20 °C 10 km+ - Var   Var 2 kt METAR EHAM 231025Z VRB02KT CAVOK 20/13 Q1001 NOSIG
11:55
V
20 °C 10 km+ - Var   Var 2 kt METAR EHAM 230955Z VRB02KT CAVOK 20/13 Q1001 NOSIG
11:25
V
20 °C 10 km+ - Var   Var 1 kt METAR EHAM 230925Z VRB01KT CAVOK 20/13 Q1002 NOSIG
10:55
V
19 °C 10 km+ - 150°   150° 4 kt METAR EHAM 230855Z 15004KT 110V180 CAVOK 19/13 Q1002 NOSIG
10:25
V
18 °C 10 km+ - Var   Var 2 kt METAR EHAM 230825Z VRB02KT CAVOK 18/13 Q1002 NOSIG
09:55
V
18 °C 10 km+ - 110°   110° 3 kt METAR EHAM 230755Z 11003KT 050V160 CAVOK 18/12 Q1002 NOSIG
09:25
V
17 °C 10 km+ - 110°   110° 4 kt METAR EHAM 230725Z 11004KT 070V150 CAVOK 17/12 Q1003 NOSIG
08:55
V
17 °C 10 km+ - 120°   120° 6 kt METAR EHAM 230655Z 12006KT CAVOK 17/11 Q1003 NOSIG
08:25
V
16 °C 10 km+ - 110°   110° 4 kt METAR EHAM 230625Z 11004KT 080V140 CAVOK 16/11 Q1003 NOSIG
07:55
V
15 °C 10 km+ - 110°   110° 5 kt METAR EHAM 230555Z 11005KT 080V140 CAVOK 15/10 Q1004 NOSIG
07:25
V
16 °C 10 km+ - 100°   100° 4 kt METAR EHAM 230525Z 10004KT 060V170 CAVOK 16/10 Q1004 NOSIG
06:55
V
15 °C 10 km+ - 100°   100° 4 kt METAR EHAM 230455Z 10004KT CAVOK 15/10 Q1004 NOSIG
06:25
V
14 °C 10 km+ - 080°   080° 5 kt METAR EHAM 230425Z 08005KT CAVOK 14/10 Q1004 NOSIG
05:55
V
14 °C 10 km+ - 090°   090° 5 kt METAR EHAM 230355Z 09005KT CAVOK 14/09 Q1005 NOSIG
05:25
V
15 °C 10 km+ - 100°   100° 4 kt METAR EHAM 230325Z 10004KT 070V140 CAVOK 15/09 Q1006 NOSIG
04:55
V
14 °C 10 km+ - 110°   110° 5 kt METAR EHAM 230255Z 11005KT CAVOK 14/09 Q1006 NOSIG
04:25
V
14 °C 10 km+ - 100°   100° 6 kt METAR EHAM 230225Z 10006KT CAVOK 14/09 Q1006 NOSIG
03:55
V
15 °C 10 km+ - 110°   110° 7 kt METAR EHAM 230155Z 11007KT CAVOK 15/09 Q1007 NOSIG
03:25
V
15 °C 10 km+ - 110°   110° 6 kt METAR EHAM 230125Z 11006KT CAVOK 15/09 Q1007 NOSIG
02:55
V
15 °C 10 km+ - 110°   110° 7 kt METAR EHAM 230055Z 11007KT CAVOK 15/09 Q1007 NOSIG
02:25
V
16 °C 10 km+ - 110°   110° 9 kt METAR EHAM 230025Z 11009KT CAVOK 16/09 Q1007 NOSIG
01:55
V
16 °C 10 km+ - 110°   110° 8 kt METAR EHAM 222355Z 11008KT 080V140 CAVOK 16/09 Q1008 NOSIG
01:25
V
16 °C 10 km+ - 110°   110° 8 kt METAR EHAM 222325Z 11008KT 080V140 CAVOK 16/09 Q1008 NOSIG
00:55
V
16 °C 10 km+ - 110°   110° 8 kt METAR EHAM 222255Z 11008KT 070V130 CAVOK 16/09 Q1008 NOSIG
00:25
V
17 °C 10 km+ - 100°   100° 9 kt METAR EHAM 222225Z 10009KT CAVOK 17/10 Q1009 NOSIG

22 maggio 2022

Tempo Codice Tempo metereologico Temp. Vista Nuvole Vento METAR/SPECI
23:55
V
17 °C 10 km+ - 100°   100° 7 kt METAR EHAM 222155Z 10007KT CAVOK 17/10 Q1009 NOSIG
23:25
V
16 °C 10 km+ - 100°   100° 6 kt METAR EHAM 222125Z 10006KT CAVOK 16/11 Q1009 NOSIG
22:55
V
16 °C 10 km+ - 090°   090° 5 kt METAR EHAM 222055Z 09005KT CAVOK 16/11 Q1010 NOSIG
22:25
V
16 °C 10 km+ - 090°   090° 5 kt METAR EHAM 222025Z 09005KT CAVOK 16/11 Q1010 NOSIG
21:55
V
16 °C 10 km+ - 090°   090° 5 kt METAR EHAM 221955Z 09005KT CAVOK 16/11 Q1010 NOSIG
21:25
V
18 °C 10 km+ - 110°   110° 4 kt METAR EHAM 221925Z 11004KT CAVOK 18/10 Q1010 NOSIG
20:55
V
18 °C 10 km+ - 100°   100° 4 kt METAR EHAM 221855Z 10004KT CAVOK 18/10 Q1010 NOSIG
20:25
V
19 °C 10 km+ - 110°   110° 4 kt METAR EHAM 221825Z 11004KT 080V150 CAVOK 19/10 Q1011 NOSIG
19:55
V
20 °C 10 km+ - 130°   130° 4 kt METAR EHAM 221755Z 13004KT 100V170 CAVOK 20/10 Q1011 NOSIG
19:25
V
20 °C 10 km+ - 160°   160° 6 kt METAR EHAM 221725Z 16006KT 130V190 CAVOK 20/10 Q1011 NOSIG
18:55
V
20 °C 10 km+ - 170°   170° 6 kt METAR EHAM 221655Z 17006KT 120V220 CAVOK 20/10 Q1011 NOSIG
18:25
V
21 °C 10 km+ - 150°   150° 6 kt METAR EHAM 221625Z 15006KT 090V220 CAVOK 21/09 Q1012 NOSIG
17:55
V
21 °C 10 km+ - 130°   130° 7 kt METAR EHAM 221555Z 13007KT 100V190 CAVOK 21/10 Q1012 NOSIG
17:25
V
21 °C 10 km+ - 160°   160° 5 kt METAR EHAM 221525Z 16005KT 100V200 CAVOK 21/10 Q1012 NOSIG
16:55
V
21 °C 10 km+ - 150°   150° 8 kt METAR EHAM 221455Z 15008KT 080V230 CAVOK 21/09 Q1013 NOSIG
16:25
V
21 °C 10 km+ - 150°   150° 9 kt METAR EHAM 221425Z 15009KT 100V200 CAVOK 21/09 Q1013 NOSIG
15:55
V
21 °C 10 km+ - 130°   130° 6 kt METAR EHAM 221355Z 13006KT 070V190 9999 FEW048 21/09 Q1013 NOSIG
15:25
V
20 °C 10 km+ - Var   Var 8 kt METAR EHAM 221325Z VRB08KT 9999 FEW046 20/10 Q1014 NOSIG
14:55
V
20 °C 10 km+ - Var   Var 7 kt METAR EHAM 221255Z VRB07KT 9999 FEW045 20/09 Q1014 NOSIG
14:25
V
20 °C 10 km+ - Var   Var 6 kt METAR EHAM 221225Z VRB06KT 9999 FEW042 20/09 Q1015 NOSIG
13:55
V
20 °C 10 km+ - Var   Var 4 kt METAR EHAM 221155Z VRB04KT 9999 FEW042 20/10 Q1015 NOSIG
13:25
V
20 °C 10 km+ - Var   Var 4 kt METAR EHAM 221125Z VRB04KT 9999 FEW042 20/10 Q1015 NOSIG
12:55
V
19 °C 10 km+ - 140°   140° 6 kt METAR EHAM 221055Z 14006KT 080V190 9999 FEW040 19/10 Q1016 NOSIG
12:25
V
19 °C 10 km+ - 140°   140° 6 kt METAR EHAM 221025Z 14006KT 070V220 9999 FEW040 19/10 Q1016 NOSIG
11:55
V
18 °C 10 km+ - 130°   130° 7 kt METAR EHAM 220955Z 13007KT 080V200 9999 FEW035 18/10 Q1016 NOSIG
11:25
V
18 °C 10 km+ - 150°   150° 5 kt METAR EHAM 220925Z 15005KT 080V220 9999 FEW030 18/10 Q1016 NOSIG
10:55
V
18 °C 10 km+ - 150°   150° 6 kt METAR EHAM 220855Z 15006KT 120V210 9999 FEW030 18/10 Q1017 NOSIG
10:25
V
17 °C 10 km+ - 150°   150° 6 kt METAR EHAM 220825Z 15006KT 120V200 CAVOK 17/10 Q1017 NOSIG
09:55
V
16 °C 10 km+ - 160°   160° 7 kt METAR EHAM 220755Z 16007KT 120V200 CAVOK 16/11 Q1017 NOSIG
09:25
V
15 °C 10 km+ - 190°   190° 7 kt METAR EHAM 220725Z 19007KT 140V220 CAVOK 15/10 Q1017 NOSIG
08:55
V
15 °C 10 km+ - 150°   150° 6 kt METAR EHAM 220655Z 15006KT 110V190 CAVOK 15/11 Q1017 NOSIG
08:25
V
14 °C 10 km+ - 160°   160° 4 kt METAR EHAM 220625Z 16004KT 130V190 CAVOK 14/11 Q1017 NOSIG
07:55
V
13 °C 10 km+ - 140°   140° 3 kt METAR EHAM 220555Z 14003KT CAVOK 13/10 Q1017 NOSIG
07:25
V
12 °C 10 km+ - Var   Var 2 kt METAR EHAM 220525Z VRB02KT CAVOK 12/10 Q1017 NOSIG
06:55
V
10 °C 10 km+ - 150°   150° 2 kt METAR EHAM 220455Z 15002KT 9999 MIFG NSC 10/10 Q1017 NOSIG
06:25
V
9 °C 10 km+ - 150°   150° 2 kt METAR EHAM 220425Z 15002KT 9999 MIFG NSC 09/09 Q1017 NOSIG
05:55
V
9 °C 10 km+ - 150°   150° 3 kt METAR EHAM 220355Z 15003KT 9999 MIFG NSC 09/09 Q1018 NOSIG
05:25
V
9 °C 10 km+ - 090°   090° 2 kt METAR EHAM 220325Z 09002KT 9999 MIFG NSC 09/08 Q1018 NOSIG
04:55
V
9 °C 9 km - 170°   170° 2 kt METAR EHAM 220255Z 17002KT 9000 MIFG NSC 09/09 Q1018 NOSIG
04:25
V
9 °C 10 km+ - 190°   190° 3 kt METAR EHAM 220225Z 19003KT 9999 MIFG NSC 09/09 Q1018 NOSIG
03:55
V
9 °C 10 km+ - 160°   160° 3 kt METAR EHAM 220155Z 16003KT 9999 MIFG NSC 09/09 Q1018 NOSIG
03:25
V
9 °C 10 km+ - 110°   110° 1 kt METAR EHAM 220125Z 11001KT 9999 MIFG NSC 09/09 Q1019 NOSIG
02:55
V
9 °C 10 km+ - Var   Var 1 kt METAR EHAM 220055Z VRB01KT 9999 R18C/P2000N R27/P2000N R18R/0800U R06/P2000N MIFG NSC 09/09 Q1019 NOSIG
02:25
V
10 °C 10 km+ - 330°   330° 1 kt METAR EHAM 220025Z 33001KT 9999 MIFG NSC 10/09 Q1019 NOSIG
01:55
V
10 °C 10 km+ - Var   000° 0 kt METAR EHAM 212355Z 00000KT 9999 MIFG NSC 10/09 Q1019 NOSIG
01:25
V
9 °C 10 km+ - 350°   350° 2 kt METAR EHAM 212325Z 35002KT 9999 MIFG NSC 09/09 Q1020 NOSIG
00:55
V
10 °C 10 km+ - Var   Var 2 kt METAR EHAM 212255Z VRB02KT 9999 MIFG NSC 10/09 Q1020 NOSIG
00:25
V
10 °C 10 km+ - 020°   020° 1 kt METAR EHAM 212225Z 02001KT CAVOK 10/09 Q1020 NOSIG

21 maggio 2022

Tempo Codice Tempo metereologico Temp. Vista Nuvole Vento METAR/SPECI
23:55
V
11 °C 10 km+ - 020°   020° 1 kt METAR EHAM 212155Z 02001KT CAVOK 11/09 Q1019 NOSIG
23:25
V
11 °C 10 km+ - Var   000° 0 kt METAR EHAM 212125Z 00000KT CAVOK 11/09 Q1020 NOSIG
22:55
V
12 °C 10 km+ - Var   Var 1 kt METAR EHAM 212055Z VRB01KT CAVOK 12/09 Q1020 NOSIG
22:25
V
12 °C 10 km+ - 310°   310° 3 kt METAR EHAM 212025Z 31003KT 270V340 CAVOK 12/09 Q1020 NOSIG
21:55
V
12 °C 10 km+ - 310°   310° 5 kt METAR EHAM 211955Z 31005KT 280V340 CAVOK 12/09 Q1020 NOSIG
21:25
V
13 °C 10 km+ - 300°   300° 5 kt METAR EHAM 211925Z 30005KT 270V330 CAVOK 13/09 Q1020 NOSIG
20:55
V
14 °C 10 km+ - 290°   290° 5 kt METAR EHAM 211855Z 29005KT 260V330 CAVOK 14/09 Q1020 NOSIG
20:25
V
15 °C 10 km+ - 290°   290° 5 kt METAR EHAM 211825Z 29005KT 260V340 CAVOK 15/09 Q1020 NOSIG
19:55
V
15 °C 10 km+ - 270°   270° 6 kt METAR EHAM 211755Z 27006KT 240V300 CAVOK 15/09 Q1020 NOSIG
19:25
V
15 °C 10 km+ - 270°   270° 8 kt METAR EHAM 211725Z 27008KT 9999 FEW028 15/09 Q1020 NOSIG
18:55
V
16 °C 10 km+ - 270°   270° 9 kt METAR EHAM 211655Z 27009KT 230V300 9999 FEW025 16/09 Q1020 NOSIG
18:25
V
16 °C 10 km+ - 280°   280° 9 kt METAR EHAM 211625Z 28009KT 250V320 9999 FEW025 16/10 Q1021 NOSIG
17:55
V
16 °C 10 km+ - 270°   270° 9 kt METAR EHAM 211555Z 27009KT 230V330 9999 FEW022 16/10 Q1021 NOSIG
17:25
V
16 °C 10 km+ - 270°   270° 10 kt METAR EHAM 211525Z 27010KT 240V310 9999 FEW022 16/09 Q1021 NOSIG
16:55
V
16 °C 10 km+ - 290°   290° 11 kt METAR EHAM 211455Z 29011KT 260V320 9999 FEW022 16/10 Q1021 NOSIG
Dati più vecchi

Scarica la nostra applicazione

Facile accesso a tutte le previsioni dell'aviazione sul tuo cellulare e tablet.
Con molte caratteristiche non disponibili sul sito web, come il supporto offline e una lista personale di aeroporti.

Noi e le terze parti seguiamo il tuo comportamento in internet sul nostro sito web con i cookie. Se continui, riteniamo che tu sia d'accordo con la nostra politica sui cookie. Per saperne di più